sensor_id;sensor_type;location;lat;lon;timestamp;pressure;altitude;pressure_sealevel;temperature;humidity
48636;BME280;34429;52.332;5.614;2023-02-14T00:02:03;103500.78;;;2.22;100.00
48636;BME280;34429;52.332;5.614;2023-02-14T00:04:32;103491.16;;;2.12;100.00
48636;BME280;34429;52.332;5.614;2023-02-14T00:07:02;103498.25;;;2.11;100.00
48636;BME280;34429;52.332;5.614;2023-02-14T00:09:31;103492.97;;;2.08;100.00
48636;BME280;34429;52.332;5.614;2023-02-14T00:11:59;103496.44;;;2.15;100.00
48636;BME280;34429;52.332;5.614;2023-02-14T00:14:28;103491.16;;;2.10;100.00
48636;BME280;34429;52.332;5.614;2023-02-14T00:17:11;103493.75;;;2.16;100.00
48636;BME280;34429;52.332;5.614;2023-02-14T00:19:40;103494.72;;;2.12;100.00
48636;BME280;34429;52.332;5.614;2023-02-14T00:22:08;103498.25;;;2.11;100.00
48636;BME280;34429;52.332;5.614;2023-02-14T00:24:36;103490.38;;;2.00;100.00
48636;BME280;34429;52.332;5.614;2023-02-14T00:27:05;103493.06;;;1.97;100.00
48636;BME280;34429;52.332;5.614;2023-02-14T00:29:33;103483.38;;;1.93;100.00
48636;BME280;34429;52.332;5.614;2023-02-14T00:32:02;103483.41;;;1.87;100.00
48636;BME280;34429;52.332;5.614;2023-02-14T00:34:33;103485.19;;;1.89;100.00
48636;BME280;34429;52.332;5.614;2023-02-14T00:37:02;103490.59;;;1.79;100.00
48636;BME280;34429;52.332;5.614;2023-02-14T00:39:31;103481.75;;;1.80;100.00
48636;BME280;34429;52.332;5.614;2023-02-14T00:41:59;103478.09;;;1.87;100.00
48636;BME280;34429;52.332;5.614;2023-02-14T00:44:28;103475.53;;;1.79;100.00
48636;BME280;34429;52.332;5.614;2023-02-14T00:46:56;103472.91;;;1.78;100.00
48636;BME280;34429;52.332;5.614;2023-02-14T00:49:24;103467.59;;;1.78;100.00
48636;BME280;34429;52.332;5.614;2023-02-14T00:51:56;103458.72;;;1.79;100.00
48636;BME280;34429;52.332;5.614;2023-02-14T00:54:24;103473.75;;;1.83;100.00
48636;BME280;34429;52.332;5.614;2023-02-14T00:56:52;103467.56;;;1.81;100.00
48636;BME280;34429;52.332;5.614;2023-02-14T00:59:21;103460.50;;;1.78;100.00
48636;BME280;34429;52.332;5.614;2023-02-14T01:01:50;103463.19;;;1.73;100.00
48636;BME280;34429;52.332;5.614;2023-02-14T01:04:18;103463.25;;;1.69;100.00
48636;BME280;34429;52.332;5.614;2023-02-14T01:06:47;103460.59;;;1.67;100.00
48636;BME280;34429;52.332;5.614;2023-02-14T01:09:18;103460.66;;;1.63;100.00
48636;BME280;34429;52.332;5.614;2023-02-14T01:11:47;103460.66;;;1.61;100.00
48636;BME280;34429;52.332;5.614;2023-02-14T01:14:15;103457.19;;;1.53;100.00
48636;BME280;34429;52.332;5.614;2023-02-14T01:16:44;103458.94;;;1.57;100.00
48636;BME280;34429;52.332;5.614;2023-02-14T01:19:12;103450.94;;;1.58;100.00
48636;BME280;34429;52.332;5.614;2023-02-14T01:21:41;103460.72;;;1.55;100.00
48636;BME280;34429;52.332;5.614;2023-02-14T01:24:21;103451.13;;;1.38;100.00
48636;BME280;34429;52.332;5.614;2023-02-14T01:26:51;103450.28;;;1.33;100.00
48636;BME280;34429;52.332;5.614;2023-02-14T01:29:19;103446.81;;;1.28;100.00
48636;BME280;34429;52.332;5.614;2023-02-14T01:31:48;103452.09;;;1.25;100.00
48636;BME280;34429;52.332;5.614;2023-02-14T01:34:17;103449.47;;;1.23;100.00
48636;BME280;34429;52.332;5.614;2023-02-14T01:36:46;103454.75;;;1.25;100.00
48636;BME280;34429;52.332;5.614;2023-02-14T01:39:14;103452.97;;;1.30;100.00
48636;BME280;34429;52.332;5.614;2023-02-14T01:41:46;103451.16;;;1.32;100.00
48636;BME280;34429;52.332;5.614;2023-02-14T01:47:27;103453.06;;;1.13;100.00
48636;BME280;34429;52.332;5.614;2023-02-14T01:50:07;103449.53;;;1.14;100.00
48636;BME280;34429;52.332;5.614;2023-02-14T01:52:41;103452.25;;;1.07;100.00
48636;BME280;34429;52.332;5.614;2023-02-14T01:55:14;103455.78;;;1.05;100.00
48636;BME280;34429;52.332;5.614;2023-02-14T01:58:13;103448.66;;;1.17;100.00
48636;BME280;34429;52.332;5.614;2023-02-14T02:00:47;103437.19;;;1.09;100.00
48636;BME280;34429;52.332;5.614;2023-02-14T02:03:29;103438.16;;;0.98;100.00
48636;BME280;34429;52.332;5.614;2023-02-14T02:06:05;103433.75;;;1.00;100.00
48636;BME280;34429;52.332;5.614;2023-02-14T02:08:39;103434.59;;;1.04;100.00
48636;BME280;34429;52.332;5.614;2023-02-14T02:11:09;103439.03;;;1.02;100.00
48636;BME280;34429;52.332;5.614;2023-02-14T02:13:40;103436.38;;;1.00;100.00
48636;BME280;34429;52.332;5.614;2023-02-14T02:16:21;103432.78;;;1.04;100.00
48636;BME280;34429;52.332;5.614;2023-02-14T02:19:03;103430.16;;;1.06;100.00
48636;BME280;34429;52.332;5.614;2023-02-14T02:22:11;103429.38;;;0.93;100.00
48636;BME280;34429;52.332;5.614;2023-02-14T02:24:53;103432.88;;;0.95;100.00
48636;BME280;34429;52.332;5.614;2023-02-14T02:27:30;103434.63;;;0.96;100.00
48636;BME280;34429;52.332;5.614;2023-02-14T02:39:25;103419.59;;;0.98;100.00
48636;BME280;34429;52.332;5.614;2023-02-14T02:42:04;103430.22;;;0.97;100.00
48636;BME280;34429;52.332;5.614;2023-02-14T02:44:41;103425.81;;;0.91;100.00
48636;BME280;34429;52.332;5.614;2023-02-14T02:47:18;103432.03;;;0.92;100.00
48636;BME280;34429;52.332;5.614;2023-02-14T02:49:54;103432.91;;;0.92;100.00
48636;BME280;34429;52.332;5.614;2023-02-14T02:52:47;103427.63;;;0.89;100.00
48636;BME280;34429;52.332;5.614;2023-02-14T02:55:41;103416.16;;;0.87;100.00
48636;BME280;34429;52.332;5.614;2023-02-14T02:58:26;103422.34;;;0.86;100.00
48636;BME280;34429;52.332;5.614;2023-02-14T03:00:58;103422.38;;;0.81;100.00
48636;BME280;34429;52.332;5.614;2023-02-14T03:03:29;103430.34;;;0.80;100.00
48636;BME280;34429;52.332;5.614;2023-02-14T03:06:11;103425.88;;;0.82;100.00
48636;BME280;34429;52.332;5.614;2023-02-14T03:08:42;103432.13;;;0.73;100.00
48636;BME280;34429;52.332;5.614;2023-02-14T03:11:11;103420.66;;;0.73;100.00
48636;BME280;34429;52.332;5.614;2023-02-14T03:13:53;103423.31;;;0.71;100.00
48636;BME280;34429;52.332;5.614;2023-02-14T03:16:31;103424.13;;;0.79;100.00
48636;BME280;34429;52.332;5.614;2023-02-14T03:22:33;103415.41;;;0.63;100.00
48636;BME280;34429;52.332;5.614;2023-02-14T03:25:19;103412.75;;;0.60;100.00
48636;BME280;34429;52.332;5.614;2023-02-14T03:27:56;103412.75;;;0.60;100.00
48636;BME280;34429;52.332;5.614;2023-02-14T03:30:32;103406.63;;;0.55;100.00
48636;BME280;34429;52.332;5.614;2023-02-14T03:33:11;103403.91;;;0.63;100.00
48636;BME280;34429;52.332;5.614;2023-02-14T03:35:45;103401.25;;;0.63;100.00
48636;BME280;34429;52.332;5.614;2023-02-14T03:38:22;103403.06;;;0.59;100.00
48636;BME280;34429;52.332;5.614;2023-02-14T03:40:59;103403.06;;;0.59;100.00
48636;BME280;34429;52.332;5.614;2023-02-14T03:43:32;103401.28;;;0.61;100.00
48636;BME280;34429;52.332;5.614;2023-02-14T03:46:05;103394.22;;;0.57;100.00
48636;BME280;34429;52.332;5.614;2023-02-14T03:48:37;103389.81;;;0.61;100.00
48636;BME280;34429;52.332;5.614;2023-02-14T03:51:09;103391.66;;;0.43;100.00
48636;BME280;34429;52.332;5.614;2023-02-14T03:53:42;103390.81;;;0.33;100.00
48636;BME280;34429;52.332;5.614;2023-02-14T03:56:17;103389.06;;;0.31;100.00
48636;BME280;34429;52.332;5.614;2023-02-14T03:58:52;103396.09;;;0.37;100.00
48636;BME280;34429;52.332;5.614;2023-02-14T04:01:29;103393.44;;;0.37;100.00
48636;BME280;34429;52.332;5.614;2023-02-14T04:04:00;103396.97;;;0.40;100.00
48636;BME280;34429;52.332;5.614;2023-02-14T04:06:29;103389.88;;;0.47;100.00
48636;BME280;34429;52.332;5.614;2023-02-14T04:08:57;103389.84;;;0.51;100.00
48636;BME280;34429;52.332;5.614;2023-02-14T04:11:28;103401.34;;;0.52;100.00
48636;BME280;34429;52.332;5.614;2023-02-14T04:13:59;103401.31;;;0.55;100.00
48636;BME280;34429;52.332;5.614;2023-02-14T04:16:28;103402.19;;;0.56;100.00
48636;BME280;34429;52.332;5.614;2023-02-14T04:19:16;103400.47;;;0.44;100.00
48636;BME280;34429;52.332;5.614;2023-02-14T04:21:48;103400.53;;;0.33;100.00
48636;BME280;34429;52.332;5.614;2023-02-14T04:24:16;103405.84;;;0.34;100.00
48636;BME280;34429;52.332;5.614;2023-02-14T04:26:47;103404.97;;;0.36;100.00
48636;BME280;34429;52.332;5.614;2023-02-14T04:29:34;103398.72;;;0.40;100.00
48636;BME280;34429;52.332;5.614;2023-02-14T04:32:03;103394.34;;;0.39;100.00
48636;BME280;34429;52.332;5.614;2023-02-14T04:34:32;103404.03;;;0.41;100.00
48636;BME280;34429;52.332;5.614;2023-02-14T04:37:00;103402.28;;;0.42;100.00
48636;BME280;34429;52.332;5.614;2023-02-14T04:39:29;103400.50;;;0.41;100.00
48636;BME280;34429;52.332;5.614;2023-02-14T04:42:02;103399.66;;;0.29;100.00
48636;BME280;34429;52.332;5.614;2023-02-14T04:44:30;103400.56;;;0.31;100.00
48636;BME280;34429;52.332;5.614;2023-02-14T04:47:00;103396.97;;;0.42;100.00
48636;BME280;34429;52.332;5.614;2023-02-14T04:49:28;103391.69;;;0.37;100.00
48636;BME280;34429;52.332;5.614;2023-02-14T04:51:57;103393.50;;;0.29;100.00
48636;BME280;34429;52.332;5.614;2023-02-14T04:54:26;103386.41;;;0.34;100.00
48636;BME280;34429;52.332;5.614;2023-02-14T04:56:55;103386.41;;;0.31;100.00
48636;BME280;34429;52.332;5.614;2023-02-14T04:59:26;103389.09;;;0.23;100.00
48636;BME280;34429;52.332;5.614;2023-02-14T05:01:54;103396.19;;;0.21;100.00
48636;BME280;34429;52.332;5.614;2023-02-14T05:04:23;103391.75;;;0.22;100.00
48636;BME280;34429;52.332;5.614;2023-02-14T05:06:51;103380.25;;;0.26;100.00
48636;BME280;34429;52.332;5.614;2023-02-14T05:09:20;103388.16;;;0.33;100.00
48636;BME280;34429;52.332;5.614;2023-02-14T05:11:48;103389.06;;;0.36;100.00
48636;BME280;34429;52.332;5.614;2023-02-14T05:14:17;103382.00;;;0.33;100.00
48636;BME280;34429;52.332;5.614;2023-02-14T05:16:47;103389.09;;;0.26;100.00
48636;BME280;34429;52.332;5.614;2023-02-14T05:19:16;103388.22;;;0.26;100.00
48636;BME280;34429;52.332;5.614;2023-02-14T05:21:44;103386.44;;;0.26;100.00
48636;BME280;34429;52.332;5.614;2023-02-14T05:24:13;103381.19;;;0.19;100.00
48636;BME280;34429;52.332;5.614;2023-02-14T05:26:41;103382.06;;;0.16;100.00
48636;BME280;34429;52.332;5.614;2023-02-14T05:29:10;103375.91;;;0.15;100.00
48636;BME280;34429;52.332;5.614;2023-02-14T05:31:38;103380.31;;;0.18;100.00
48636;BME280;34429;52.332;5.614;2023-02-14T05:34:09;103378.53;;;0.20;100.00
48636;BME280;34429;52.332;5.614;2023-02-14T05:36:37;103382.03;;;0.19;100.00
48636;BME280;34429;52.332;5.614;2023-02-14T05:39:06;103381.19;;;0.15;100.00
48636;BME280;34429;52.332;5.614;2023-02-14T05:41:35;103382.06;;;0.16;100.00
48636;BME280;34429;52.332;5.614;2023-02-14T05:44:03;103385.63;;;0.16;100.00
48636;BME280;34429;52.332;5.614;2023-02-14T05:46:32;103379.44;;;0.13;100.00
48636;BME280;34429;52.332;5.614;2023-02-14T05:49:00;103390.91;;;0.18;100.00
48636;BME280;34429;52.332;5.614;2023-02-14T05:51:31;103388.22;;;0.23;100.00
48636;BME280;34429;52.332;5.614;2023-02-14T05:53:59;103385.63;;;0.16;100.00
48636;BME280;34429;52.332;5.614;2023-02-14T05:56:28;103384.75;;;0.11;100.00
48636;BME280;34429;52.332;5.614;2023-02-14T05:58:56;103380.34;;;0.12;100.00
48636;BME280;34429;52.332;5.614;2023-02-14T06:01:24;103378.53;;;0.17;100.00
48636;BME280;34429;52.332;5.614;2023-02-14T06:03:53;103390.88;;;0.21;100.00
48636;BME280;34429;52.332;5.614;2023-02-14T06:06:21;103378.53;;;0.17;100.00
48636;BME280;34429;52.332;5.614;2023-02-14T06:08:52;103383.88;;;0.11;100.00
48636;BME280;34429;52.332;5.614;2023-02-14T06:11:20;103384.75;;;0.08;100.00
48636;BME280;34429;52.332;5.614;2023-02-14T06:13:49;103383.84;;;0.14;100.00
48636;BME280;34429;52.332;5.614;2023-02-14T06:16:17;103380.28;;;0.24;100.00
48636;BME280;34429;52.332;5.614;2023-02-14T06:18:45;103388.22;;;0.26;100.00
48636;BME280;34429;52.332;5.614;2023-02-14T06:21:14;103381.13;;;0.29;100.00
48636;BME280;34429;52.332;5.614;2023-02-14T06:23:42;103382.84;;;0.37;100.00
48636;BME280;34429;52.332;5.614;2023-02-14T06:26:13;103382.88;;;0.33;100.00
48636;BME280;34429;52.332;5.614;2023-02-14T06:28:41;103388.16;;;0.33;100.00
48636;BME280;34429;52.332;5.614;2023-02-14T06:31:14;103382.03;;;0.28;100.00
48636;BME280;34429;52.332;5.614;2023-02-14T06:33:43;103377.53;;;0.40;100.00
48636;BME280;34429;52.332;5.614;2023-02-14T06:36:11;103373.97;;;0.45;100.00
48636;BME280;34429;52.332;5.614;2023-02-14T06:38:40;103382.81;;;0.49;100.00
48636;BME280;34429;52.332;5.614;2023-02-14T06:41:10;103384.56;;;0.48;100.00
48636;BME280;34429;52.332;5.614;2023-02-14T06:43:42;103384.50;;;0.61;100.00
48636;BME280;34429;52.332;5.614;2023-02-14T06:46:13;103382.72;;;0.61;100.00
48636;BME280;34429;52.332;5.614;2023-02-14T06:48:43;103390.66;;;0.61;100.00
48636;BME280;34429;52.332;5.614;2023-02-14T06:51:13;103387.16;;;0.59;100.00
48636;BME280;34429;52.332;5.614;2023-02-14T06:53:41;103385.41;;;0.58;100.00
48636;BME280;34429;52.332;5.614;2023-02-14T06:56:09;103384.50;;;0.59;100.00
48636;BME280;34429;52.332;5.614;2023-02-14T06:58:41;103382.75;;;0.57;100.00
48636;BME280;34429;52.332;5.614;2023-02-14T07:01:09;103389.81;;;0.58;100.00
48636;BME280;34429;52.332;5.614;2023-02-14T07:03:37;103391.56;;;0.57;100.00
48636;BME280;34429;52.332;5.614;2023-02-14T07:06:06;103394.22;;;0.56;100.00
48636;BME280;34429;52.332;5.614;2023-02-14T07:08:34;103395.13;;;0.51;100.00
48636;BME280;34429;52.332;5.614;2023-02-14T07:11:09;103400.41;;;0.61;100.00
48636;BME280;34429;52.332;5.614;2023-02-14T07:13:37;103399.50;;;0.66;100.00
48636;BME280;34429;52.332;5.614;2023-02-14T07:16:08;103395.94;;;0.64;100.00
48636;BME280;34429;52.332;5.614;2023-02-14T07:18:36;103401.28;;;0.60;100.00
48636;BME280;34429;52.332;5.614;2023-02-14T07:21:04;103399.53;;;0.54;100.00
48636;BME280;34429;52.332;5.614;2023-02-14T07:23:33;103392.41;;;0.65;100.00
48636;BME280;34429;52.332;5.614;2023-02-14T07:26:01;103385.28;;;0.77;100.00
48636;BME280;34429;52.332;5.614;2023-02-14T07:28:30;103398.38;;;0.98;100.00
48636;BME280;34429;52.332;5.614;2023-02-14T07:30:58;103393.88;;;1.10;100.00
48636;BME280;34429;52.332;5.614;2023-02-14T07:33:30;103399.94;;;1.26;100.00
48636;BME280;34429;52.332;5.614;2023-02-14T07:36:03;103391.00;;;1.37;100.00
48636;BME280;34429;52.332;5.614;2023-02-14T07:38:31;103390.94;;;1.42;100.00
48636;BME280;34429;52.332;5.614;2023-02-14T07:41:00;103397.09;;;1.49;100.00
48636;BME280;34429;52.332;5.614;2023-02-14T07:43:28;103397.09;;;1.49;100.00
48636;BME280;34429;52.332;5.614;2023-02-14T07:45:58;103394.44;;;1.46;100.00
48636;BME280;34429;52.332;5.614;2023-02-14T07:48:30;103398.78;;;1.53;100.00
48636;BME280;34429;52.332;5.614;2023-02-14T07:50:58;103401.47;;;1.50;100.00
48636;BME280;34429;52.332;5.614;2023-02-14T07:53:27;103401.25;;;1.73;100.00
48636;BME280;34429;52.332;5.614;2023-02-14T07:55:55;103398.41;;;1.93;100.00
48636;BME280;34429;52.332;5.614;2023-02-14T07:58:24;103398.31;;;1.99;100.00
48636;BME280;34429;52.332;5.614;2023-02-14T08:00:53;103404.53;;;1.98;100.00
48636;BME280;34429;52.332;5.614;2023-02-14T08:03:21;103395.59;;;2.04;100.00
48636;BME280;34429;52.332;5.614;2023-02-14T08:05:52;103395.47;;;2.15;100.00
48636;BME280;34429;52.332;5.614;2023-02-14T08:08:25;103382.06;;;2.25;100.00
48636;BME280;34429;52.332;5.614;2023-02-14T08:10:53;103384.56;;;2.36;100.00
48636;BME280;34429;52.332;5.614;2023-02-14T08:13:21;103383.50;;;2.50;100.00
48636;BME280;34429;52.332;5.614;2023-02-14T08:15:50;103381.69;;;2.52;100.00
48636;BME280;34429;52.332;5.614;2023-02-14T08:18:35;103391.34;;;2.59;100.00
48636;BME280;34429;52.332;5.614;2023-02-14T08:21:08;103387.47;;;2.82;100.00
48636;BME280;34429;52.332;5.614;2023-02-14T08:23:37;103381.94;;;2.94;100.00
48636;BME280;34429;52.332;5.614;2023-02-14T08:26:06;103390.47;;;3.16;100.00
48636;BME280;34429;52.332;5.614;2023-02-14T08:28:34;103387.66;;;3.24;100.00
48636;BME280;34429;52.332;5.614;2023-02-14T08:31:03;103383.00;;;3.38;100.00
48636;BME280;34429;52.332;5.614;2023-02-14T08:33:32;103386.44;;;3.45;100.00
48636;BME280;34429;52.332;5.614;2023-02-14T08:36:00;103388.88;;;3.56;100.00
48636;BME280;34429;52.332;5.614;2023-02-14T08:38:31;103389.59;;;3.65;100.00
48636;BME280;34429;52.332;5.614;2023-02-14T08:41:00;103382.34;;;3.74;100.00
48636;BME280;34429;52.332;5.614;2023-02-14T08:43:28;103387.19;;;3.98;100.00
48636;BME280;34429;52.332;5.614;2023-02-14T08:45:57;103372.66;;;4.13;100.00
48636;BME280;34429;52.332;5.614;2023-02-14T08:48:25;103390.44;;;4.13;100.00
48636;BME280;34429;52.332;5.614;2023-02-14T08:50:54;103389.19;;;4.31;100.00
48636;BME280;34429;52.332;5.614;2023-02-14T08:53:22;103383.56;;;4.45;100.00
48636;BME280;34429;52.332;5.614;2023-02-14T08:55:53;103389.31;;;4.65;100.00
48636;BME280;34429;52.332;5.614;2023-02-14T08:58:21;103390.75;;;4.80;100.00
48636;BME280;34429;52.332;5.614;2023-02-14T09:00:50;103387.13;;;4.83;100.00
48636;BME280;34429;52.332;5.614;2023-02-14T09:03:19;103392.34;;;5.23;100.00
48636;BME280;34429;52.332;5.614;2023-02-14T09:05:48;103394.66;;;5.03;100.00
48636;BME280;34429;52.332;5.614;2023-02-14T09:08:16;103384.78;;;5.06;100.00
48636;BME280;34429;52.332;5.614;2023-02-14T09:10:44;103388.09;;;5.16;100.00
48636;BME280;34429;52.332;5.614;2023-02-14T09:13:15;103391.16;;;5.35;100.00
48636;BME280;34429;52.332;5.614;2023-02-14T09:15:44;103385.03;;;5.32;100.00
48636;BME280;34429;52.332;5.614;2023-02-14T09:18:12;103391.56;;;5.54;100.00
48636;BME280;34429;52.332;5.614;2023-02-14T09:20:41;103379.75;;;5.63;100.00
48636;BME280;34429;52.332;5.614;2023-02-14T09:23:09;103387.38;;;5.77;100.00
48636;BME280;34429;52.332;5.614;2023-02-14T09:25:38;103379.72;;;5.65;100.00
48636;BME280;34429;52.332;5.614;2023-02-14T09:28:06;103382.03;;;5.77;100.00
48636;BME280;34429;52.332;5.614;2023-02-14T09:30:37;103376.38;;;5.89;100.00
48636;BME280;34429;52.332;5.614;2023-02-14T09:33:05;103377.88;;;6.00;100.00
48636;BME280;34429;52.332;5.614;2023-02-14T09:35:34;103385.34;;;6.18;100.00
48636;BME280;34429;52.332;5.614;2023-02-14T09:38:15;103375.41;;;6.23;100.00
48636;BME280;34429;52.332;5.614;2023-02-14T09:40:43;103375.22;;;6.29;100.00
48636;BME280;34429;52.332;5.614;2023-02-14T09:43:18;103370.22;;;6.47;100.00
48636;BME280;34429;52.332;5.614;2023-02-14T09:45:53;103374.56;;;6.51;100.00
48636;BME280;34429;52.332;5.614;2023-02-14T09:48:28;103373.69;;;6.51;100.00
48636;BME280;34429;52.332;5.614;2023-02-14T09:51:01;103372.25;;;6.69;100.00
48636;BME280;34429;52.332;5.614;2023-02-14T09:53:33;103365.38;;;6.88;100.00
48636;BME280;34429;52.332;5.614;2023-02-14T09:56:06;103359.75;;;6.96;100.00
48636;BME280;34429;52.332;5.614;2023-02-14T09:58:42;103366.59;;;7.05;100.00
48636;BME280;34429;52.332;5.614;2023-02-14T10:01:21;103368.16;;;7.12;100.00
48636;BME280;34429;52.332;5.614;2023-02-14T10:04:12;103361.63;;;7.46;100.00
48636;BME280;34429;52.332;5.614;2023-02-14T10:06:47;103362.66;;;7.42;100.00
48636;BME280;34429;52.332;5.614;2023-02-14T10:09:40;103365.91;;;7.51;100.00
48636;BME280;34429;52.332;5.614;2023-02-14T10:12:18;103365.72;;;7.56;100.00
48636;BME280;34429;52.332;5.614;2023-02-14T10:14:48;103361.97;;;7.62;100.00
48636;BME280;34429;52.332;5.614;2023-02-14T10:17:21;103356.31;;;7.69;100.00
48636;BME280;34429;52.332;5.614;2023-02-14T10:19:55;103359.91;;;7.94;100.00
48636;BME280;34429;52.332;5.614;2023-02-14T10:22:33;103360.25;;;8.08;100.00
48636;BME280;34429;52.332;5.614;2023-02-14T10:25:12;103358.78;;;7.99;100.00
48636;BME280;34429;52.332;5.614;2023-02-14T10:27:45;103362.00;;;8.09;100.00
48636;BME280;34429;52.332;5.614;2023-02-14T10:30:15;103361.00;;;8.35;100.00
48636;BME280;34429;52.332;5.614;2023-02-14T10:32:48;103357.16;;;8.42;100.00
48636;BME280;34429;52.332;5.614;2023-02-14T10:35:24;103352.94;;;8.59;100.00
48636;BME280;34429;52.332;5.614;2023-02-14T10:38:04;103355.94;;;8.51;100.00
48636;BME280;34429;52.332;5.614;2023-02-14T10:43:47;103351.00;;;8.85;100.00
48636;BME280;34429;52.332;5.614;2023-02-14T10:46:28;103351.81;;;8.87;100.00
48636;BME280;34429;52.332;5.614;2023-02-14T10:49:19;103344.06;;;9.01;100.00
48636;BME280;34429;52.332;5.614;2023-02-14T10:51:59;103353.44;;;9.13;100.00
48636;BME280;34429;52.332;5.614;2023-02-14T10:54:37;103344.22;;;9.19;100.00
48636;BME280;34429;52.332;5.614;2023-02-14T10:57:11;103342.75;;;9.32;100.00
48636;BME280;34429;52.332;5.614;2023-02-14T10:59:46;103339.25;;;9.30;100.00
48636;BME280;34429;52.332;5.614;2023-02-14T11:02:20;103334.56;;;9.15;100.00
48636;BME280;34429;52.332;5.614;2023-02-14T11:04:52;103331.84;;;9.15;100.00
48636;BME280;34429;52.332;5.614;2023-02-14T11:07:22;103324.66;;;9.15;100.00
48636;BME280;34429;52.332;5.614;2023-02-14T11:09:50;103323.53;;;9.41;100.00
48636;BME280;34429;52.332;5.614;2023-02-14T11:12:33;103328.34;;;9.12;100.00
48636;BME280;34429;52.332;5.614;2023-02-14T11:15:10;103316.03;;;9.29;100.00
48636;BME280;34429;52.332;5.614;2023-02-14T11:17:46;103313.44;;;9.46;100.00
48636;BME280;34429;52.332;5.614;2023-02-14T11:20:26;103309.13;;;9.63;100.00
48636;BME280;34429;52.332;5.614;2023-02-14T11:22:56;103302.47;;;9.91;100.00
48636;BME280;34429;52.332;5.614;2023-02-14T11:25:26;103302.41;;;10.11;100.00
48636;BME280;34429;52.332;5.614;2023-02-14T11:27:58;103309.44;;;10.33;100.00
48636;BME280;34429;52.332;5.614;2023-02-14T11:30:32;103303.84;;;10.18;100.00
48636;BME280;34429;52.332;5.614;2023-02-14T11:33:02;103302.22;;;10.35;100.00
48636;BME280;34429;52.332;5.614;2023-02-14T11:35:37;103297.94;;;10.67;100.00
48636;BME280;34429;52.332;5.614;2023-02-14T11:38:23;103290.31;;;10.76;100.00
48636;BME280;34429;52.332;5.614;2023-02-14T11:40:55;103291.63;;;10.49;100.00
48636;BME280;34429;52.332;5.614;2023-02-14T11:43:30;103288.06;;;10.49;100.00
48636;BME280;34429;52.332;5.614;2023-02-14T11:46:24;103283.84;;;10.43;100.00
48636;BME280;34429;52.332;5.614;2023-02-14T11:48:57;103271.34;;;10.42;100.00
48636;BME280;34429;52.332;5.614;2023-02-14T11:51:31;103268.59;;;10.44;100.00
48636;BME280;34429;52.332;5.614;2023-02-14T11:54:02;103272.03;;;10.65;100.00
48636;BME280;34429;52.332;5.614;2023-02-14T11:56:47;103264.75;;;10.84;100.00
48636;BME280;34429;52.332;5.614;2023-02-14T11:59:27;103263.97;;;11.00;100.00
48636;BME280;34429;52.332;5.614;2023-02-14T12:01:58;103257.06;;;11.12;100.00
48636;BME280;34429;52.332;5.614;2023-02-14T12:04:32;103256.41;;;11.07;100.00
48636;BME280;34429;52.332;5.614;2023-02-14T12:07:19;103257.84;;;11.14;100.00
48636;BME280;34429;52.332;5.614;2023-02-14T12:10:06;103256.47;;;11.22;100.00
48636;BME280;34429;52.332;5.614;2023-02-14T12:12:35;103251.00;;;11.24;100.00
48636;BME280;34429;52.332;5.614;2023-02-14T12:17:48;103255.19;;;11.47;100.00
48636;BME280;34429;52.332;5.614;2023-02-14T12:20:25;103239.94;;;11.46;100.00
48636;BME280;34429;52.332;5.614;2023-02-14T12:23:04;103236.91;;;11.52;100.00
48636;BME280;34429;52.332;5.614;2023-02-14T12:25:41;103239.97;;;11.29;100.00
48636;BME280;34429;52.332;5.614;2023-02-14T12:28:13;103232.56;;;11.66;100.00
48636;BME280;34429;52.332;5.614;2023-02-14T12:30:42;103237.19;;;11.64;100.00
48636;BME280;34429;52.332;5.614;2023-02-14T12:33:17;103235.56;;;11.77;100.00
48636;BME280;34429;52.332;5.614;2023-02-14T12:35:53;103218.25;;;11.81;100.00
48636;BME280;34429;52.332;5.614;2023-02-14T12:38:30;103224.31;;;11.85;100.00
48636;BME280;34429;52.332;5.614;2023-02-14T12:41:07;103220.84;;;11.67;100.00
48636;BME280;34429;52.332;5.614;2023-02-14T12:43:49;103220.28;;;11.94;100.00
48636;BME280;34429;52.332;5.614;2023-02-14T12:46:40;103209.53;;;11.92;100.00
48636;BME280;34429;52.332;5.614;2023-02-14T12:49:21;103199.94;;;11.86;100.00
48636;BME280;34429;52.332;5.614;2023-02-14T12:52:02;103198.06;;;11.88;100.00
48636;BME280;34429;52.332;5.614;2023-02-14T12:54:47;103203.03;;;11.96;100.00
48636;BME280;34429;52.332;5.614;2023-02-14T12:57:30;103198.31;;;12.00;100.00
48636;BME280;34429;52.332;5.614;2023-02-14T13:00:15;103195.03;;;11.95;100.00
48636;BME280;34429;52.332;5.614;2023-02-14T13:05:51;103187.53;;;12.00;100.00
48636;BME280;34429;52.332;5.614;2023-02-14T13:08:36;103183.34;;;12.10;100.00
48636;BME280;34429;52.332;5.614;2023-02-14T13:11:20;103174.38;;;11.94;100.00
48636;BME280;34429;52.332;5.614;2023-02-14T13:13:57;103175.50;;;11.73;100.00
48636;BME280;34429;52.332;5.614;2023-02-14T13:16:33;103175.34;;;11.77;100.00
48636;BME280;34429;52.332;5.614;2023-02-14T13:19:11;103164.72;;;11.73;100.00
48636;BME280;34429;52.332;5.614;2023-02-14T13:21:43;103161.22;;;11.55;100.00
48636;BME280;34429;52.332;5.614;2023-02-14T13:24:15;103159.31;;;11.57;100.00
48636;BME280;34429;52.332;5.614;2023-02-14T13:26:50;103162.44;;;11.66;100.00
48636;BME280;34429;52.332;5.614;2023-02-14T13:29:22;103153.03;;;11.73;100.00
48636;BME280;34429;52.332;5.614;2023-02-14T13:32:00;103149.19;;;11.45;100.00
48636;BME280;34429;52.332;5.614;2023-02-14T13:34:31;103146.00;;;11.54;100.00
48636;BME280;34429;52.332;5.614;2023-02-14T13:37:02;103144.19;;;11.71;100.00
48636;BME280;34429;52.332;5.614;2023-02-14T13:39:34;103147.06;;;11.68;100.00
48636;BME280;34429;52.332;5.614;2023-02-14T13:42:06;103147.81;;;11.54;100.00